Ferryville, Wisconsin
Current Conditions -  °F | °C
As of 8:55 AM on Wednesday 26 Nov 2014 (Local Time) from KY51 Reporting Station
Overcast Overcast  
Wind Chill:   Ceiling: 7000
Heat Index: 17°   Visibility: 5mi
Dew Point: 17°   Wind: 7mph
Humidity: 98%   Direction: 100°E
Pressure: 30.08"   Gusts: NA
Location:  43.35°N, 91.1°W
Report Text: KY51 261455Z AUTO 10006KT 5SM OVC070 M08/M08 A3008 RMK AO1 T10831085
Loading
Personal Weather Stations






























Interactive Weather Map New forecast layout! Learn more

10-Day Weather Forecast

Advertisements
Track Severe Weather on mobile